Hlavní strana
METAR-TAF:

METAR-TAF

Letiště :

Eastman, Georgie, Spojené státy americké

zeměpisná šířka: 32-12-59N, zeměpisná délka: 083-07-43W, výška: 93 m

Aktuální stav počasí

Zpráva byla vytvořena před 23 minutami, v 17:55 UTC
Severoseverovýchodní vítr 6 kt s nárazy do 14 kt
Teplota 11°C
Vlhkost vzduchu 100%
Tlak 1017 hPa
Viditelnost: 11.3 km
Zataženo ve výšce 600 ft

METAR: KEZM 151755Z AUTO 03006G14KT 7SM OVC006 11/11 A3004 RMK AO2 T01130106 10113 20076

Čas: 13:18 (18:18 UTC)


TAF: chybějící

Stav a předpovědi počasí z více než 4 000 letišť (zprávy METAR a TAF).

Červené a žluté tečky na mapě představují dostupné meteorologické stanice.

Když kurzor umístíte na tečku, zobrazí se název stanice.

Pak kliknutím zobrazíte stav a předpověď počasí.

Chcete-li změnit mapu, kliknutím na zelené tlačítko se znaménkem +mapu přiblížíte, kliknutím na zelené tlačítko se znaménkem – mapu oddálíte a kliknutím na zelené šipky přejdete na sousední mapy.


METAR-TAF: